createdAt,value
2022-11-14T00:01:08.675Z,12.65
2022-11-14T00:03:35.905Z,14.57
2022-11-14T00:06:07.039Z,9.27
2022-11-14T00:08:34.616Z,9.80
2022-11-14T00:11:01.532Z,9.00
2022-11-14T00:13:28.810Z,13.90
2022-11-14T00:15:56.008Z,9.98
2022-11-14T00:18:23.691Z,9.65
2022-11-14T00:20:52.646Z,11.23
2022-11-14T00:23:21.132Z,10.15
2022-11-14T00:25:48.662Z,11.63
2022-11-14T00:28:16.121Z,9.20
2022-11-14T00:30:47.699Z,10.48
2022-11-14T00:33:20.094Z,8.77
2022-11-14T00:35:55.101Z,10.95
2022-11-14T00:38:22.706Z,9.30
2022-11-14T00:40:49.928Z,8.40
2022-11-14T00:43:17.206Z,11.80
2022-11-14T00:45:47.985Z,13.50
2022-11-14T00:48:15.706Z,13.63
2022-11-14T00:50:43.536Z,12.82
2022-11-14T00:53:10.825Z,11.57
2022-11-14T00:55:38.062Z,13.75
2022-11-14T00:58:05.323Z,9.82
2022-11-14T01:00:32.624Z,10.57
2022-11-14T01:03:00.037Z,11.30
2022-11-14T01:05:27.724Z,12.48
2022-11-14T01:07:55.276Z,11.20
2022-11-14T01:10:22.494Z,10.18
2022-11-14T01:12:49.513Z,11.77
2022-11-14T01:15:16.452Z,11.82
2022-11-14T01:17:43.696Z,11.57
2022-11-14T01:20:10.694Z,12.32
2022-11-14T01:22:37.946Z,13.75
2022-11-14T01:25:05.132Z,11.10
2022-11-14T01:27:32.655Z,12.90
2022-11-14T01:29:59.982Z,11.88
2022-11-14T01:32:27.534Z,9.82
2022-11-14T01:34:54.790Z,8.98
2022-11-14T01:37:22.030Z,9.40
2022-11-14T01:39:49.243Z,8.68
2022-11-14T01:42:17.753Z,8.75
2022-11-14T01:44:48.198Z,8.00
2022-11-14T01:47:21.132Z,8.95
2022-11-14T01:49:54.849Z,8.38
2022-11-14T01:52:36.077Z,7.03
2022-11-14T01:55:06.898Z,7.97
2022-11-14T01:57:42.184Z,10.07
2022-11-14T02:00:12.268Z,8.13
2022-11-14T02:02:39.731Z,6.90
2022-11-14T02:05:10.597Z,11.25
2022-11-14T02:07:39.758Z,6.40
2022-11-14T02:10:16.303Z,8.18
2022-11-14T02:12:43.568Z,10.45
2022-11-14T02:15:10.643Z,7.45
2022-11-14T02:17:37.918Z,6.13
2022-11-14T02:20:10.264Z,6.90
2022-11-14T02:22:37.964Z,10.02
2022-11-14T02:25:05.741Z,7.00
2022-11-14T02:27:33.957Z,8.85
2022-11-14T02:30:27.233Z,6.35
2022-11-14T02:33:10.573Z,5.20
2022-11-14T02:35:38.013Z,7.00
2022-11-14T02:38:05.465Z,7.30
2022-11-14T02:40:32.937Z,5.82
2022-11-14T02:43:00.257Z,7.28
2022-11-14T02:45:27.755Z,12.18
2022-11-14T02:47:54.944Z,7.10
2022-11-14T02:50:22.167Z,8.90
2022-11-14T02:52:49.395Z,5.75
2022-11-14T02:55:16.287Z,6.57
2022-11-14T02:57:43.475Z,8.30
2022-11-14T03:00:14.856Z,7.38
2022-11-14T03:02:42.584Z,5.78
2022-11-14T03:05:09.846Z,5.72
2022-11-14T03:07:37.044Z,6.85
2022-11-14T03:10:04.889Z,7.38
2022-11-14T03:12:32.181Z,6.20
2022-11-14T03:14:59.419Z,5.45
2022-11-14T03:17:26.258Z,6.40
2022-11-14T03:19:53.451Z,10.13
2022-11-14T03:22:20.708Z,8.35
2022-11-14T03:24:47.903Z,7.47
2022-11-14T03:27:15.110Z,7.07
2022-11-14T03:29:42.330Z,8.45
2022-11-14T03:32:09.170Z,6.63
2022-11-14T03:34:36.396Z,8.00
2022-11-14T03:37:03.583Z,7.65
2022-11-14T03:39:30.831Z,7.72
2022-11-14T03:41:58.019Z,8.60
2022-11-14T03:44:25.201Z,7.18
2022-11-14T03:46:52.920Z,6.60
2022-11-14T03:49:20.162Z,10.52
2022-11-14T03:51:47.436Z,6.68
2022-11-14T03:54:14.786Z,8.23
2022-11-14T03:56:41.997Z,7.65
2022-11-14T03:59:09.210Z,7.05
2022-11-14T04:01:36.465Z,7.32
2022-11-14T04:04:03.284Z,9.70
2022-11-14T04:06:30.686Z,9.63
2022-11-14T04:08:57.927Z,10.35
2022-11-14T04:11:25.232Z,8.52
2022-11-14T04:13:52.441Z,8.95
2022-11-14T04:16:19.742Z,8.90
2022-11-14T04:18:46.939Z,10.23
2022-11-14T04:21:14.193Z,8.48
2022-11-14T04:23:41.400Z,8.13
2022-11-14T04:26:08.626Z,9.93
2022-11-14T04:28:35.945Z,8.98
2022-11-14T04:31:03.180Z,8.40
2022-11-14T04:33:30.774Z,10.02
2022-11-14T04:35:58.021Z,8.75
2022-11-14T04:38:25.298Z,10.20
2022-11-14T04:40:53.024Z,9.90
2022-11-14T04:43:21.019Z,10.70
2022-11-14T04:45:48.267Z,9.32
2022-11-14T04:48:15.553Z,11.50
2022-11-14T04:50:42.785Z,12.32
2022-11-14T04:53:09.980Z,10.57
2022-11-14T04:55:37.230Z,13.77
2022-11-14T04:58:04.512Z,13.20
2022-11-14T05:00:31.785Z,12.20
2022-11-14T05:03:01.712Z,18.70
2022-11-14T05:05:28.506Z,10.65
2022-11-14T05:07:55.964Z,9.98
2022-11-14T05:10:22.946Z,12.30
2022-11-14T05:12:53.212Z,13.68
2022-11-14T05:15:20.104Z,14.68
2022-11-14T05:17:46.954Z,12.45
2022-11-14T05:20:14.272Z,11.25
2022-11-14T05:22:41.561Z,12.02
2022-11-14T05:25:08.800Z,13.73
2022-11-14T05:27:35.817Z,10.27
2022-11-14T05:30:02.849Z,12.45
2022-11-14T05:32:29.672Z,12.18
2022-11-14T05:34:56.462Z,15.63
2022-11-14T05:37:23.354Z,13.63
2022-11-14T05:39:50.567Z,12.50
2022-11-14T05:42:17.594Z,15.50
2022-11-14T05:44:44.390Z,15.57
2022-11-14T05:47:11.237Z,12.68
2022-11-14T05:49:38.045Z,15.85
2022-11-14T05:52:05.085Z,16.33
2022-11-14T05:54:31.876Z,13.73
2022-11-14T05:56:58.743Z,16.17
2022-11-14T05:59:25.958Z,18.08
2022-11-14T06:01:53.302Z,17.20
2022-11-14T06:04:20.529Z,15.57
2022-11-14T06:06:47.799Z,18.90
2022-11-14T06:09:15.081Z,18.73
2022-11-14T06:11:42.341Z,16.17
2022-11-14T06:14:10.983Z,22.23
2022-11-14T06:16:38.638Z,21.63
2022-11-14T06:19:05.864Z,18.98
2022-11-14T06:21:33.105Z,21.70
2022-11-14T06:24:00.313Z,19.95
2022-11-14T06:26:32.650Z,18.95
2022-11-14T06:29:00.791Z,22.02
2022-11-14T06:31:28.154Z,22.98
2022-11-14T06:33:56.837Z,21.13
2022-11-14T06:36:24.183Z,23.75
2022-11-14T06:38:51.489Z,24.50
2022-11-14T06:41:20.346Z,20.20
2022-11-14T06:43:49.509Z,19.58
2022-11-14T06:46:18.953Z,23.23
2022-11-14T06:48:46.943Z,19.30
2022-11-14T06:51:14.866Z,20.23
2022-11-14T06:53:42.356Z,20.95
2022-11-14T06:56:15.355Z,22.02
2022-11-14T06:58:49.651Z,27.00
2022-11-14T07:01:26.055Z,21.95
2022-11-14T07:03:53.382Z,19.42
2022-11-14T07:06:25.733Z,24.08
2022-11-14T07:08:53.765Z,22.33
2022-11-14T07:15:14.936Z,20.33
2022-11-14T07:17:41.757Z,20.58
2022-11-14T07:20:09.150Z,20.40
2022-11-14T07:22:36.340Z,20.30
2022-11-14T07:25:03.568Z,22.25
2022-11-14T07:27:30.769Z,24.63
2022-11-14T07:29:58.031Z,21.40
2022-11-14T07:32:25.278Z,20.15
2022-11-14T07:34:52.551Z,21.20
2022-11-14T07:37:19.773Z,22.90
2022-11-14T07:39:46.987Z,20.90
2022-11-14T07:42:14.185Z,21.52
2022-11-14T07:44:41.420Z,20.75
2022-11-14T07:47:08.621Z,26.83
2022-11-14T07:49:35.930Z,22.83
2022-11-14T07:52:02.768Z,21.98
2022-11-14T07:54:30.055Z,21.60
2022-11-14T07:56:57.260Z,21.95
2022-11-14T07:59:24.522Z,24.95
2022-11-14T08:01:51.753Z,24.05
2022-11-14T08:04:19.069Z,22.90
2022-11-14T08:06:46.033Z,20.85
2022-11-14T08:09:13.332Z,22.05
2022-11-14T08:11:49.549Z,22.98
2022-11-14T08:14:17.160Z,26.50
2022-11-14T08:16:44.380Z,27.67
2022-11-14T08:19:11.261Z,24.88
2022-11-14T08:21:38.516Z,22.90
2022-11-14T08:24:05.702Z,22.67
2022-11-14T08:26:34.423Z,22.15
2022-11-14T08:29:01.887Z,21.08
2022-11-14T08:35:16.682Z,24.02
2022-11-14T08:37:43.650Z,28.00
2022-11-14T08:40:11.425Z,26.48
2022-11-14T08:42:38.630Z,23.73
2022-11-14T08:45:05.901Z,23.65
2022-11-14T08:47:33.097Z,22.27
2022-11-14T08:50:00.333Z,21.92
2022-11-14T08:52:27.583Z,23.15
2022-11-14T08:54:54.418Z,20.48
2022-11-14T08:57:21.701Z,21.05
2022-11-14T08:59:48.572Z,24.17
2022-11-14T09:02:15.802Z,22.55
2022-11-14T09:04:43.148Z,22.75
2022-11-14T09:07:10.104Z,22.58
2022-11-14T09:09:37.429Z,25.17
2022-11-14T09:12:04.579Z,23.80
2022-11-14T09:14:31.813Z,25.60
2022-11-14T09:17:04.615Z,26.65
2022-11-14T09:19:33.022Z,24.35
2022-11-14T09:22:00.249Z,26.63
2022-11-14T09:24:27.856Z,24.23
2022-11-14T09:26:57.198Z,22.08
2022-11-14T09:29:24.617Z,22.63
2022-11-14T09:31:52.365Z,19.05
2022-11-14T09:34:19.750Z,22.88
2022-11-14T09:36:47.046Z,20.00
2022-11-14T09:39:14.602Z,22.13
2022-11-14T09:41:41.876Z,20.55
2022-11-14T09:44:35.287Z,19.77
2022-11-14T09:47:07.332Z,18.83
2022-11-14T09:49:40.791Z,17.48
2022-11-14T09:52:26.844Z,20.97
2022-11-14T09:55:11.645Z,20.73
2022-11-14T10:00:21.319Z,13.70
2022-11-14T10:03:06.285Z,16.10
2022-11-14T10:05:54.909Z,13.10
2022-11-14T10:12:25.183Z,11.98
2022-11-14T10:15:21.285Z,13.63
2022-11-14T10:18:04.022Z,11.00
2022-11-14T10:20:31.262Z,11.20
2022-11-14T10:23:13.271Z,11.77
2022-11-14T10:26:15.583Z,13.23
2022-11-14T10:29:06.947Z,11.95
2022-11-14T10:31:39.674Z,13.15
2022-11-14T10:34:29.361Z,11.02
2022-11-14T10:37:01.927Z,12.63
2022-11-14T10:39:40.241Z,12.00
2022-11-14T10:42:20.832Z,11.40
2022-11-14T10:45:00.673Z,11.18
2022-11-14T10:47:35.915Z,10.75
2022-11-14T10:50:19.759Z,13.00
2022-11-14T10:52:48.496Z,11.05
2022-11-14T10:55:17.921Z,14.27
2022-11-14T10:57:48.087Z,12.38
2022-11-14T11:00:17.999Z,12.25
2022-11-14T11:02:57.060Z,12.60
2022-11-14T11:05:29.707Z,12.80
2022-11-14T11:08:41.842Z,14.25
2022-11-14T11:11:30.029Z,14.38
2022-11-14T11:13:59.822Z,16.75
2022-11-14T11:16:28.730Z,16.60
2022-11-14T11:19:24.045Z,16.38
2022-11-14T11:21:52.958Z,15.77
2022-11-14T11:24:32.906Z,18.23
2022-11-14T11:27:25.769Z,17.98
2022-11-14T11:30:25.615Z,16.73
2022-11-14T11:32:52.864Z,19.45
2022-11-14T11:35:20.182Z,18.17
2022-11-14T11:37:54.807Z,16.52
2022-11-14T11:40:29.687Z,19.40
2022-11-14T11:45:47.980Z,19.80
2022-11-14T11:48:19.832Z,18.45
2022-11-14T11:54:33.400Z,19.92
2022-11-14T11:57:03.632Z,22.75
2022-11-14T11:59:40.910Z,22.77
2022-11-14T12:02:36.741Z,19.48
2022-11-14T12:05:03.858Z,21.77
2022-11-14T12:07:50.746Z,21.17
2022-11-14T12:10:27.270Z,23.52
2022-11-14T12:13:34.431Z,21.38
2022-11-14T12:16:12.992Z,24.92
2022-11-14T12:18:53.686Z,20.35
2022-11-14T12:21:38.911Z,19.98
2022-11-14T12:24:17.383Z,25.42
2022-11-14T12:27:21.682Z,26.73
2022-11-14T12:30:14.955Z,23.08
2022-11-14T12:32:55.514Z,23.83
2022-11-14T12:35:31.985Z,24.33
2022-11-14T12:38:03.049Z,23.88
2022-11-14T12:40:32.199Z,20.77
2022-11-14T12:43:00.835Z,21.92
2022-11-14T12:45:36.621Z,26.67
2022-11-14T12:48:20.983Z,23.23
2022-11-14T12:50:48.198Z,25.52
2022-11-14T12:53:36.232Z,23.88
2022-11-14T12:56:03.430Z,24.75
2022-11-14T12:58:50.280Z,24.55
2022-11-14T13:01:45.291Z,24.42
2022-11-14T13:04:23.982Z,24.52
2022-11-14T13:07:18.855Z,29.25
2022-11-14T13:09:59.914Z,23.65
2022-11-14T13:12:46.692Z,24.25
2022-11-14T13:16:08.774Z,23.67
2022-11-14T13:18:54.849Z,26.95
2022-11-14T13:25:12.129Z,22.95
2022-11-14T13:28:06.088Z,24.33
2022-11-14T13:31:16.309Z,21.35
2022-11-14T13:33:44.349Z,26.55
2022-11-14T13:36:47.855Z,24.88
2022-11-14T13:39:29.913Z,26.02
2022-11-14T13:41:57.140Z,21.42
2022-11-14T13:44:40.403Z,21.42
2022-11-14T13:47:07.666Z,19.70
2022-11-14T13:49:56.596Z,19.90
2022-11-14T13:52:27.897Z,20.33
2022-11-14T13:54:55.197Z,17.73
2022-11-14T13:57:45.449Z,20.42
2022-11-14T14:00:20.320Z,18.40
2022-11-14T14:03:10.809Z,17.27
2022-11-14T14:06:14.586Z,19.15
2022-11-14T14:08:54.378Z,20.20
2022-11-14T14:11:47.237Z,19.77
2022-11-14T14:14:36.763Z,17.73
2022-11-14T14:17:27.941Z,18.88
2022-11-14T14:20:21.837Z,19.17
2022-11-14T14:22:58.888Z,19.13
2022-11-14T14:25:40.473Z,20.98
2022-11-14T14:28:24.091Z,22.67
2022-11-14T14:31:06.992Z,21.85
2022-11-14T14:33:43.099Z,19.60
2022-11-14T14:36:20.694Z,19.27
2022-11-14T14:38:48.422Z,20.73
2022-11-14T14:41:18.324Z,19.77
2022-11-14T14:43:52.501Z,19.73
2022-11-14T14:46:33.780Z,21.35
2022-11-14T14:49:04.300Z,21.95
2022-11-14T14:51:36.510Z,25.05
2022-11-14T14:54:03.592Z,20.90
2022-11-14T14:56:30.463Z,23.83
2022-11-14T14:58:57.771Z,25.50
2022-11-14T15:01:35.884Z,28.85
2022-11-14T15:04:06.556Z,24.95
2022-11-14T15:06:38.218Z,28.25
2022-11-14T15:09:10.718Z,25.73
2022-11-14T15:11:42.199Z,25.98
2022-11-14T15:14:38.835Z,26.88
2022-11-14T15:17:07.031Z,24.88
2022-11-14T15:19:43.054Z,25.35
2022-11-14T15:22:10.933Z,27.70
2022-11-14T15:24:38.162Z,26.95
2022-11-14T15:27:25.246Z,29.63
2022-11-14T15:29:53.608Z,30.33
2022-11-14T15:32:23.712Z,29.77
2022-11-14T15:35:23.930Z,31.42
2022-11-14T15:38:43.158Z,33.60
2022-11-14T15:41:11.303Z,34.80
2022-11-14T15:43:38.769Z,39.35
2022-11-14T15:46:28.528Z,39.85
2022-11-14T15:48:56.096Z,37.28
2022-11-14T15:51:58.493Z,38.13
2022-11-14T15:54:28.089Z,41.22
2022-11-14T15:56:57.667Z,36.65
2022-11-14T15:59:25.110Z,43.42
2022-11-14T16:01:57.777Z,38.85
2022-11-14T16:04:29.648Z,38.30
2022-11-14T16:06:56.899Z,32.42
2022-11-14T16:09:24.247Z,38.45
2022-11-14T16:11:51.599Z,37.35
2022-11-14T16:14:18.913Z,32.47
2022-11-14T16:16:46.238Z,33.80
2022-11-14T16:19:16.905Z,36.25
2022-11-14T16:21:44.813Z,33.58
2022-11-14T16:24:22.884Z,36.67
2022-11-14T16:26:50.444Z,34.08
2022-11-14T16:29:17.709Z,35.80
2022-11-14T16:31:44.991Z,34.35
2022-11-14T16:34:19.642Z,33.58
2022-11-14T16:36:47.873Z,33.88
2022-11-14T16:39:15.099Z,37.70
2022-11-14T16:41:42.453Z,34.40
2022-11-14T16:44:16.075Z,36.63
2022-11-14T16:46:44.455Z,41.70
2022-11-14T16:49:19.676Z,40.40
2022-11-14T16:51:51.136Z,37.88
2022-11-14T16:54:20.205Z,39.60
2022-11-14T16:56:47.873Z,39.20
2022-11-14T16:59:15.289Z,37.60
2022-11-14T17:01:42.940Z,38.03
2022-11-14T17:04:10.467Z,36.55
2022-11-14T17:06:37.305Z,37.35
2022-11-14T17:09:04.242Z,39.63
2022-11-14T17:11:31.781Z,38.42
2022-11-14T17:13:59.130Z,40.83
2022-11-14T17:16:26.032Z,42.25
2022-11-14T17:18:54.765Z,42.95
2022-11-14T17:21:22.815Z,36.75
2022-11-14T17:23:57.096Z,34.03
2022-11-14T17:26:24.487Z,37.42
2022-11-14T17:28:51.826Z,43.70
2022-11-14T17:31:19.457Z,36.47
2022-11-14T17:33:54.133Z,35.65
2022-11-14T17:36:22.464Z,34.05
2022-11-14T17:38:49.713Z,37.83
2022-11-14T17:41:16.967Z,38.78
2022-11-14T17:43:44.488Z,41.00
2022-11-14T17:46:16.014Z,39.80
2022-11-14T17:48:44.556Z,38.50
2022-11-14T17:51:13.769Z,39.50
2022-11-14T17:53:41.220Z,38.63
2022-11-14T17:56:17.003Z,35.92
2022-11-14T17:58:44.775Z,36.65
2022-11-14T18:01:13.859Z,35.92
2022-11-14T18:03:41.022Z,35.15
2022-11-14T18:06:13.346Z,34.45
2022-11-14T18:08:40.715Z,36.92
2022-11-14T18:11:10.199Z,41.55
2022-11-14T18:13:39.196Z,36.30
2022-11-14T18:16:18.155Z,36.17
2022-11-14T18:18:45.458Z,36.53
2022-11-14T18:21:18.401Z,35.50
2022-11-14T18:23:53.974Z,36.90
2022-11-14T18:26:23.263Z,39.65
2022-11-14T18:28:58.228Z,35.80
2022-11-14T18:31:25.782Z,49.03
2022-11-14T18:33:53.248Z,46.05
2022-11-14T18:36:20.647Z,40.65
2022-11-14T18:38:48.146Z,36.25
2022-11-14T18:41:18.539Z,37.28
2022-11-14T18:43:46.231Z,40.90
2022-11-14T18:46:23.252Z,41.85
2022-11-14T18:48:55.658Z,38.97
2022-11-14T18:51:25.558Z,40.42
2022-11-14T18:53:55.364Z,38.33
2022-11-14T18:56:25.513Z,37.47
2022-11-14T18:58:54.599Z,40.47
2022-11-14T19:01:26.274Z,40.70
2022-11-14T19:03:56.680Z,41.22
2022-11-14T19:06:23.706Z,40.55
2022-11-14T19:08:50.603Z,41.30
2022-11-14T19:11:37.288Z,40.65
2022-11-14T19:14:06.116Z,41.42
2022-11-14T19:16:37.201Z,41.03
2022-11-14T19:19:05.950Z,37.25
2022-11-14T19:21:33.508Z,42.80
2022-11-14T19:24:01.039Z,37.97
2022-11-14T19:26:29.037Z,39.83
2022-11-14T19:28:56.675Z,44.95
2022-11-14T19:31:24.502Z,44.97
2022-11-14T19:33:51.778Z,42.80
2022-11-14T19:36:52.735Z,41.90
2022-11-14T19:39:09.277Z,42.05
2022-11-14T19:41:36.582Z,46.15
2022-11-14T19:44:04.111Z,40.85
2022-11-14T19:46:31.250Z,42.50
2022-11-14T19:48:59.855Z,45.47
2022-11-14T19:51:28.170Z,43.92
2022-11-14T19:53:56.023Z,43.00
2022-11-14T19:56:23.855Z,41.10
2022-11-14T19:58:52.449Z,41.05
2022-11-14T20:01:22.381Z,49.80
2022-11-14T20:03:55.289Z,45.88
2022-11-14T20:06:23.878Z,43.28
2022-11-14T20:08:51.292Z,42.47
2022-11-14T20:11:18.808Z,45.95
2022-11-14T20:13:46.289Z,43.03
2022-11-14T20:16:15.334Z,44.90
2022-11-14T20:18:45.735Z,43.03
2022-11-14T20:21:14.184Z,45.88
2022-11-14T20:23:41.267Z,52.55
2022-11-14T20:26:11.244Z,42.83
2022-11-14T20:28:39.631Z,51.28
2022-11-14T20:31:12.507Z,50.92
2022-11-14T20:33:42.023Z,50.25
2022-11-14T20:36:21.575Z,49.17
2022-11-14T20:38:49.256Z,41.58
2022-11-14T20:41:16.747Z,43.13
2022-11-14T20:43:44.109Z,44.65
2022-11-14T20:46:14.345Z,47.95
2022-11-14T20:48:41.952Z,46.63
2022-11-14T20:51:20.297Z,47.63
2022-11-14T20:53:48.715Z,43.75
2022-11-14T20:56:16.541Z,43.20
2022-11-14T20:58:49.355Z,49.42
2022-11-14T21:01:16.783Z,46.83
2022-11-14T21:03:43.778Z,48.25
2022-11-14T21:06:13.167Z,49.00
2022-11-14T21:08:41.301Z,52.22
2022-11-14T21:11:13.847Z,49.63
2022-11-14T21:13:59.337Z,49.25
2022-11-14T21:16:31.625Z,46.47
2022-11-14T21:18:59.361Z,44.47
2022-11-14T21:21:30.566Z,45.72
2022-11-14T21:23:58.223Z,46.47
2022-11-14T21:26:30.604Z,48.63
2022-11-14T21:29:00.264Z,52.90
2022-11-14T21:31:27.455Z,46.95
2022-11-14T21:33:58.660Z,44.95
2022-11-14T21:39:15.433Z,50.65
2022-11-14T21:41:43.033Z,47.60
2022-11-14T21:44:13.604Z,47.20
2022-11-14T21:46:41.073Z,49.20
2022-11-14T21:49:08.363Z,44.63
2022-11-14T21:51:35.284Z,46.03
2022-11-14T21:54:06.589Z,42.22
2022-11-14T21:56:37.231Z,48.83
2022-11-14T21:59:14.140Z,50.65
2022-11-14T22:02:11.131Z,44.30
2022-11-14T22:04:38.379Z,46.85
2022-11-14T22:07:07.111Z,43.75
2022-11-14T22:09:34.828Z,44.53
2022-11-14T22:12:01.798Z,43.63
2022-11-14T22:14:29.699Z,46.10
2022-11-14T22:16:58.138Z,42.80
2022-11-14T22:19:25.228Z,40.92
2022-11-14T22:21:52.122Z,42.97
2022-11-14T22:24:18.953Z,44.85
2022-11-14T22:26:45.983Z,41.28
2022-11-14T22:29:13.258Z,47.38
2022-11-14T22:31:40.162Z,47.08
2022-11-14T22:34:07.129Z,48.15
2022-11-14T22:36:33.983Z,42.72
2022-11-14T22:39:00.926Z,48.22
2022-11-14T22:41:33.409Z,45.92
2022-11-14T22:44:01.426Z,45.50
2022-11-14T22:46:28.956Z,39.95
2022-11-14T22:48:56.203Z,41.97
2022-11-14T22:51:24.992Z,41.42
2022-11-14T22:53:54.209Z,43.65
2022-11-14T22:56:27.598Z,41.63
2022-11-14T22:58:55.103Z,41.25
2022-11-14T23:01:32.723Z,43.28
2022-11-14T23:04:05.373Z,45.22
2022-11-14T23:06:34.112Z,46.10
2022-11-14T23:09:02.118Z,43.17
2022-11-14T23:11:30.701Z,43.90
2022-11-14T23:13:59.517Z,43.78
2022-11-14T23:16:32.300Z,45.28
2022-11-14T23:19:01.872Z,42.92
2022-11-14T23:21:31.424Z,45.50
2022-11-14T23:24:00.583Z,43.45
2022-11-14T23:26:29.319Z,42.45
2022-11-14T23:28:56.812Z,44.72
2022-11-14T23:31:24.404Z,46.40
2022-11-14T23:33:54.221Z,44.03
2022-11-14T23:36:21.449Z,44.13
2022-11-14T23:38:48.720Z,45.83
2022-11-14T23:41:20.964Z,45.28
2022-11-14T23:43:47.890Z,46.15
2022-11-14T23:46:15.310Z,44.00
2022-11-14T23:48:42.631Z,42.97
2022-11-14T23:51:10.071Z,42.75
2022-11-14T23:53:37.085Z,44.38
2022-11-14T23:56:04.240Z,48.25
2022-11-14T23:58:31.813Z,41.67
